createdAt,value
2023-03-26T00:02:04.969Z,6.30
2023-03-26T00:04:33.872Z,6.30
2023-03-26T00:07:01.141Z,6.20
2023-03-26T00:09:29.927Z,6.20
2023-03-26T00:12:00.112Z,6.20
2023-03-26T00:14:29.298Z,6.20
2023-03-26T00:16:56.432Z,6.20
2023-03-26T00:19:23.444Z,6.30
2023-03-26T00:21:51.684Z,6.30
2023-03-26T00:24:18.639Z,6.30
2023-03-26T00:26:54.286Z,6.40
2023-03-26T00:29:28.166Z,6.40
2023-03-26T00:31:55.262Z,6.40
2023-03-26T00:34:25.021Z,6.40
2023-03-26T00:36:56.517Z,6.50
2023-03-26T00:39:25.776Z,6.50
2023-03-26T00:41:54.562Z,6.50
2023-03-26T00:44:22.691Z,6.50
2023-03-26T00:46:49.643Z,6.50
2023-03-26T00:49:30.782Z,6.50
2023-03-26T00:51:57.747Z,6.50
2023-03-26T00:54:24.770Z,6.60
2023-03-26T00:56:55.960Z,6.50
2023-03-26T00:59:23.454Z,6.50
2023-03-26T01:01:51.353Z,6.50
2023-03-26T01:04:27.486Z,6.40
2023-03-26T01:06:58.708Z,6.40
2023-03-26T01:09:42.924Z,6.40
2023-03-26T01:12:18.320Z,6.40
2023-03-26T01:14:46.713Z,6.40
2023-03-26T01:17:15.724Z,6.40
2023-03-26T01:19:48.643Z,6.30
2023-03-26T01:22:23.234Z,6.30
2023-03-26T01:24:54.005Z,6.30
2023-03-26T01:27:42.111Z,6.40
2023-03-26T01:30:11.916Z,6.40
2023-03-26T01:33:00.862Z,6.40
2023-03-26T01:35:30.855Z,6.40
2023-03-26T01:38:37.648Z,6.40
2023-03-26T01:41:16.157Z,6.30
2023-03-26T01:43:59.321Z,6.40
2023-03-26T01:46:27.324Z,6.40
2023-03-26T01:48:55.543Z,6.40
2023-03-26T01:51:36.034Z,6.40
2023-03-26T01:54:06.054Z,6.40
2023-03-26T01:57:10.993Z,6.40
2023-03-26T02:07:12.589Z,6.40
2023-03-26T02:09:52.804Z,6.40
2023-03-26T02:12:22.304Z,6.40
2023-03-26T02:14:51.775Z,6.40
2023-03-26T02:17:19.257Z,6.30
2023-03-26T02:19:49.369Z,6.30
2023-03-26T02:22:30.025Z,6.20
2023-03-26T02:24:57.027Z,6.10
2023-03-26T02:27:25.044Z,5.90
2023-03-26T02:29:52.056Z,5.80
2023-03-26T02:32:22.186Z,5.70
2023-03-26T02:34:51.431Z,5.60
2023-03-26T02:37:19.171Z,5.40
2023-03-26T02:39:53.353Z,5.30
2023-03-26T02:42:20.819Z,5.30
2023-03-26T02:44:56.561Z,5.20
2023-03-26T02:47:32.983Z,5.00
2023-03-26T02:50:13.712Z,4.90
2023-03-26T02:52:46.421Z,4.80
2023-03-26T02:55:14.470Z,4.70
2023-03-26T02:57:41.452Z,4.80
2023-03-26T03:00:09.321Z,4.90
2023-03-26T03:02:38.726Z,4.90
2023-03-26T03:05:11.784Z,5.00
2023-03-26T03:07:39.068Z,5.10
2023-03-26T03:10:08.809Z,5.30
2023-03-26T03:13:01.264Z,5.30
2023-03-26T03:15:31.246Z,5.30
2023-03-26T03:17:58.170Z,5.30
2023-03-26T03:20:25.254Z,5.20
2023-03-26T03:23:03.243Z,5.10
2023-03-26T03:25:30.281Z,5.00
2023-03-26T03:27:59.404Z,4.90
2023-03-26T03:30:26.493Z,4.80
2023-03-26T03:32:53.443Z,4.80
2023-03-26T03:35:30.219Z,4.70
2023-03-26T03:37:58.237Z,4.60
2023-03-26T03:40:25.891Z,4.60
2023-03-26T03:42:53.056Z,4.50
2023-03-26T03:45:26.029Z,4.50
2023-03-26T03:47:53.462Z,4.40
2023-03-26T03:50:21.203Z,4.30
2023-03-26T03:52:48.277Z,4.30
2023-03-26T03:55:20.335Z,4.30
2023-03-26T03:57:47.252Z,4.20
2023-03-26T04:00:22.750Z,4.20
2023-03-26T04:02:50.018Z,4.30
2023-03-26T04:05:17.043Z,4.30
2023-03-26T04:07:50.320Z,4.30
2023-03-26T04:10:17.571Z,4.30
2023-03-26T04:12:45.763Z,4.30
2023-03-26T04:15:12.742Z,4.20
2023-03-26T04:17:43.197Z,4.20
2023-03-26T04:20:23.526Z,4.20
2023-03-26T04:22:53.767Z,4.20
2023-03-26T04:25:21.564Z,4.10
2023-03-26T04:27:49.149Z,4.00
2023-03-26T04:30:20.749Z,4.00
2023-03-26T04:32:49.129Z,4.00
2023-03-26T04:35:17.367Z,3.90
2023-03-26T04:37:46.110Z,3.80
2023-03-26T04:40:20.689Z,3.80
2023-03-26T04:42:48.427Z,3.80
2023-03-26T04:45:22.584Z,3.80
2023-03-26T04:47:50.806Z,3.80
2023-03-26T04:50:17.999Z,3.90
2023-03-26T04:52:45.579Z,4.00
2023-03-26T04:55:43.237Z,3.90
2023-03-26T04:58:10.356Z,4.00
2023-03-26T05:00:37.384Z,4.00
2023-03-26T05:03:04.412Z,4.10
2023-03-26T05:05:31.427Z,4.20
2023-03-26T05:08:04.790Z,4.20
2023-03-26T05:10:32.028Z,4.30
2023-03-26T05:12:58.955Z,4.40
2023-03-26T05:15:26.093Z,4.40
2023-03-26T05:17:55.520Z,4.50
2023-03-26T05:20:26.468Z,4.50
2023-03-26T05:22:53.611Z,4.50
2023-03-26T05:25:20.606Z,4.50
2023-03-26T05:27:47.656Z,4.60
2023-03-26T05:30:20.426Z,4.60
2023-03-26T05:32:49.272Z,4.70
2023-03-26T05:35:17.827Z,4.70
2023-03-26T05:37:48.071Z,4.80
2023-03-26T05:40:17.262Z,4.80
2023-03-26T05:42:48.705Z,4.80
2023-03-26T05:45:16.306Z,4.80
2023-03-26T05:47:43.677Z,4.90
2023-03-26T05:50:11.523Z,4.90
2023-03-26T05:52:44.779Z,4.90
2023-03-26T05:55:34.343Z,5.00
2023-03-26T05:58:02.399Z,5.00
2023-03-26T06:00:31.482Z,5.10
2023-03-26T06:02:58.977Z,5.20
2023-03-26T06:05:26.579Z,5.30
2023-03-26T06:07:57.630Z,5.40
2023-03-26T06:10:24.551Z,5.50
2023-03-26T06:12:51.465Z,5.50
2023-03-26T06:15:18.455Z,5.50
2023-03-26T06:17:49.820Z,5.50
2023-03-26T06:20:16.986Z,5.50
2023-03-26T06:22:47.248Z,5.70
2023-03-26T06:25:14.139Z,5.80
2023-03-26T06:27:41.086Z,5.90
2023-03-26T06:30:09.873Z,5.90
2023-03-26T06:32:36.868Z,5.80
2023-03-26T06:35:04.021Z,5.80
2023-03-26T06:37:31.085Z,5.90
2023-03-26T06:39:58.056Z,5.90
2023-03-26T06:43:06.754Z,6.00
2023-03-26T06:45:14.372Z,6.10
2023-03-26T06:47:41.434Z,6.20
2023-03-26T06:50:14.736Z,6.20
2023-03-26T06:52:42.101Z,6.20
2023-03-26T06:55:10.470Z,6.20
2023-03-26T06:57:38.089Z,6.30
2023-03-26T07:00:06.338Z,6.30
2023-03-26T07:02:33.355Z,6.30
2023-03-26T07:05:00.384Z,6.30
2023-03-26T07:07:27.447Z,6.30
2023-03-26T07:09:54.359Z,6.30
2023-03-26T07:12:28.225Z,6.20
2023-03-26T07:14:55.469Z,6.30
2023-03-26T07:17:35.390Z,6.30
2023-03-26T07:24:43.034Z,6.40
2023-03-26T07:27:47.224Z,6.50
2023-03-26T07:31:04.558Z,6.50
2023-03-26T07:44:33.039Z,6.80
2023-03-26T07:47:37.405Z,6.70
2023-03-26T07:50:19.975Z,6.70
2023-03-26T07:52:57.641Z,6.70
2023-03-26T07:55:32.979Z,6.80
2023-03-26T07:58:49.547Z,6.80
2023-03-26T08:02:24.193Z,6.80
2023-03-26T08:05:28.044Z,7.00
2023-03-26T08:08:27.517Z,7.20
2023-03-26T08:11:39.389Z,7.30
2023-03-26T08:14:50.569Z,7.20
2023-03-26T08:17:45.222Z,7.20
2023-03-26T08:20:43.694Z,7.10
2023-03-26T08:23:34.316Z,7.10
2023-03-26T08:26:08.344Z,7.10
2023-03-26T08:28:41.316Z,7.10
2023-03-26T08:31:12.074Z,7.20
2023-03-26T08:33:40.815Z,7.10
2023-03-26T08:36:09.384Z,7.00
2023-03-26T08:38:51.146Z,7.00
2023-03-26T08:41:54.994Z,7.00
2023-03-26T08:44:55.912Z,7.00
2023-03-26T08:47:47.937Z,7.00
2023-03-26T08:50:43.579Z,6.90
2023-03-26T08:57:16.527Z,6.90
2023-03-26T08:59:56.794Z,6.90
2023-03-26T09:09:57.436Z,7.00
2023-03-26T09:17:34.976Z,7.00
2023-03-26T09:28:37.613Z,6.90
2023-03-26T09:35:19.747Z,7.10
2023-03-26T09:41:58.102Z,7.00
2023-03-26T10:00:13.641Z,6.90
2023-03-26T10:18:30.062Z,7.10
2023-03-26T10:36:47.632Z,7.20
2023-03-26T10:43:14.842Z,7.00
2023-03-26T10:46:19.396Z,7.00
2023-03-26T10:53:17.009Z,7.10
2023-03-26T10:59:27.059Z,7.60
2023-03-26T11:06:13.301Z,8.60
2023-03-26T11:16:58.477Z,8.80
2023-03-26T11:27:44.590Z,9.60
2023-03-26T11:34:05.955Z,9.70
2023-03-26T12:03:45.142Z,11.10
2023-03-26T12:10:19.052Z,10.40
2023-03-26T12:16:27.663Z,11.40
2023-03-26T21:01:02.494Z,6.60
2023-03-26T21:03:29.732Z,6.70
2023-03-26T21:06:01.464Z,6.60
2023-03-26T21:08:35.079Z,6.60
2023-03-26T21:11:04.922Z,6.70
2023-03-26T21:13:43.715Z,6.60
2023-03-26T21:16:13.215Z,6.70
2023-03-26T21:18:40.533Z,6.70
2023-03-26T21:21:46.283Z,6.60
2023-03-26T21:24:29.773Z,6.70
2023-03-26T21:27:22.811Z,6.70
2023-03-26T21:29:49.970Z,6.70
2023-03-26T21:32:17.227Z,6.70
2023-03-26T21:34:55.622Z,6.60
2023-03-26T21:37:25.797Z,6.60
2023-03-26T21:39:52.991Z,6.60
2023-03-26T21:42:20.522Z,6.60
2023-03-26T21:44:47.950Z,6.60
2023-03-26T21:47:15.171Z,6.60
2023-03-26T21:49:42.322Z,6.60
2023-03-26T21:52:15.089Z,6.60
2023-03-26T21:54:43.341Z,6.50
2023-03-26T21:57:42.495Z,6.60
2023-03-26T22:00:15.623Z,6.50
2023-03-26T22:02:58.457Z,6.50
2023-03-26T22:05:37.442Z,6.50
2023-03-26T22:08:06.326Z,6.40
2023-03-26T22:10:33.264Z,6.40
2023-03-26T22:13:00.340Z,6.50
2023-03-26T22:15:30.771Z,6.40
2023-03-26T22:18:02.375Z,6.40
2023-03-26T22:20:29.528Z,6.40
2023-03-26T22:22:56.783Z,6.40
2023-03-26T22:25:24.556Z,6.40
2023-03-26T22:27:52.842Z,6.30
2023-03-26T22:30:21.000Z,6.30
2023-03-26T22:32:48.712Z,6.30
2023-03-26T22:35:16.332Z,6.30
2023-03-26T22:37:43.418Z,6.30
2023-03-26T22:40:13.286Z,6.30
2023-03-26T22:42:41.399Z,6.30
2023-03-26T22:45:12.002Z,6.30
2023-03-26T22:47:39.208Z,6.20
2023-03-26T22:50:07.924Z,6.20
2023-03-26T22:52:36.581Z,6.20
2023-03-26T22:55:05.448Z,6.20
2023-03-26T22:57:32.486Z,6.20
2023-03-26T23:00:10.187Z,6.10
2023-03-26T23:02:37.123Z,6.10
2023-03-26T23:05:04.256Z,6.00
2023-03-26T23:07:31.779Z,6.00
2023-03-26T23:09:58.736Z,6.00
2023-03-26T23:12:25.643Z,5.90
2023-03-26T23:14:53.092Z,5.90
2023-03-26T23:17:20.372Z,6.00
2023-03-26T23:19:47.372Z,5.90
2023-03-26T23:22:14.343Z,5.90
2023-03-26T23:24:41.542Z,5.90
2023-03-26T23:27:08.903Z,5.90
2023-03-26T23:29:36.593Z,5.90
2023-03-26T23:32:03.612Z,5.90
2023-03-26T23:34:51.722Z,5.90
2023-03-26T23:37:23.305Z,5.90
2023-03-26T23:39:52.078Z,6.00
2023-03-26T23:42:29.016Z,5.90
2023-03-26T23:44:57.408Z,5.90
2023-03-26T23:47:34.612Z,5.90
2023-03-26T23:50:04.835Z,5.90
2023-03-26T23:52:31.901Z,5.90
2023-03-26T23:55:00.198Z,5.90
2023-03-26T23:57:27.482Z,5.90
2023-03-26T23:59:55.649Z,5.90
